sensor_id;sensor_type;location;lat;lon;timestamp;temperature;humidity
70475;DHT22;57944;48.722;9.316;2023-03-21T00:00:52;8.90;99.90
70475;DHT22;57944;48.722;9.316;2023-03-21T00:03:27;8.80;99.90
70475;DHT22;57944;48.722;9.316;2023-03-21T00:06:10;8.90;99.90
70475;DHT22;57944;48.722;9.316;2023-03-21T00:09:07;8.70;99.90
70475;DHT22;57944;48.722;9.316;2023-03-21T00:28:13;8.70;99.90
70475;DHT22;57944;48.722;9.316;2023-03-21T00:30:43;8.70;99.90
70475;DHT22;57944;48.722;9.316;2023-03-21T00:33:13;8.80;99.90
70475;DHT22;57944;48.722;9.316;2023-03-21T00:35:51;8.80;99.90
70475;DHT22;57944;48.722;9.316;2023-03-21T00:38:32;8.70;99.90
70475;DHT22;57944;48.722;9.316;2023-03-21T00:41:02;8.70;99.90
70475;DHT22;57944;48.722;9.316;2023-03-21T00:43:52;8.70;99.90
70475;DHT22;57944;48.722;9.316;2023-03-21T00:46:23;8.80;99.90
70475;DHT22;57944;48.722;9.316;2023-03-21T00:49:01;8.70;99.90
70475;DHT22;57944;48.722;9.316;2023-03-21T00:51:32;8.80;99.90
70475;DHT22;57944;48.722;9.316;2023-03-21T00:54:04;8.80;99.90
70475;DHT22;57944;48.722;9.316;2023-03-21T00:56:34;8.80;99.90
70475;DHT22;57944;48.722;9.316;2023-03-21T00:59:06;8.80;99.90
70475;DHT22;57944;48.722;9.316;2023-03-21T01:01:36;8.80;99.90
70475;DHT22;57944;48.722;9.316;2023-03-21T01:04:06;8.80;99.90
70475;DHT22;57944;48.722;9.316;2023-03-21T01:06:40;8.70;99.90
70475;DHT22;57944;48.722;9.316;2023-03-21T01:09:12;8.70;99.90
70475;DHT22;57944;48.722;9.316;2023-03-21T01:11:44;8.70;99.90
70475;DHT22;57944;48.722;9.316;2023-03-21T01:14:17;8.70;99.90
70475;DHT22;57944;48.722;9.316;2023-03-21T01:16:49;8.70;99.90
70475;DHT22;57944;48.722;9.316;2023-03-21T01:19:21;8.80;99.90
70475;DHT22;57944;48.722;9.316;2023-03-21T01:22:14;8.90;99.90
70475;DHT22;57944;48.722;9.316;2023-03-21T01:24:44;8.90;99.90
70475;DHT22;57944;48.722;9.316;2023-03-21T01:27:34;9.00;99.90
70475;DHT22;57944;48.722;9.316;2023-03-21T01:30:07;9.00;99.90
70475;DHT22;57944;48.722;9.316;2023-03-21T01:32:48;8.90;99.90
70475;DHT22;57944;48.722;9.316;2023-03-21T01:35:18;8.90;99.90
70475;DHT22;57944;48.722;9.316;2023-03-21T01:37:48;8.90;99.90
70475;DHT22;57944;48.722;9.316;2023-03-21T01:40:19;8.80;99.90
70475;DHT22;57944;48.722;9.316;2023-03-21T01:42:57;8.80;99.90
70475;DHT22;57944;48.722;9.316;2023-03-21T01:48:49;8.90;99.90
70475;DHT22;57944;48.722;9.316;2023-03-21T01:51:22;9.00;99.90
70475;DHT22;57944;48.722;9.316;2023-03-21T01:53:56;8.90;99.90
70475;DHT22;57944;48.722;9.316;2023-03-21T01:56:30;8.90;99.90
70475;DHT22;57944;48.722;9.316;2023-03-21T01:59:13;8.90;99.90
70475;DHT22;57944;48.722;9.316;2023-03-21T02:02:10;9.00;99.90
70475;DHT22;57944;48.722;9.316;2023-03-21T02:05:02;9.00;99.90
70475;DHT22;57944;48.722;9.316;2023-03-21T02:07:33;9.10;99.90
70475;DHT22;57944;48.722;9.316;2023-03-21T02:10:08;9.20;99.90
70475;DHT22;57944;48.722;9.316;2023-03-21T02:12:45;9.20;99.90
70475;DHT22;57944;48.722;9.316;2023-03-21T02:15:15;9.20;99.90
70475;DHT22;57944;48.722;9.316;2023-03-21T02:18:04;9.30;99.90
70475;DHT22;57944;48.722;9.316;2023-03-21T02:24:19;9.30;99.90
70475;DHT22;57944;48.722;9.316;2023-03-21T02:27:03;9.30;99.90
70475;DHT22;57944;48.722;9.316;2023-03-21T02:33:05;9.20;99.90
70475;DHT22;57944;48.722;9.316;2023-03-21T02:35:47;9.20;99.90
70475;DHT22;57944;48.722;9.316;2023-03-21T02:38:42;9.30;99.90
70475;DHT22;57944;48.722;9.316;2023-03-21T02:41:24;9.30;99.90
70475;DHT22;57944;48.722;9.316;2023-03-21T02:44:07;9.20;99.90
70475;DHT22;57944;48.722;9.316;2023-03-21T02:46:47;9.10;99.90
70475;DHT22;57944;48.722;9.316;2023-03-21T02:49:32;9.10;99.90
70475;DHT22;57944;48.722;9.316;2023-03-21T02:52:12;9.00;99.90
70475;DHT22;57944;48.722;9.316;2023-03-21T02:55:07;9.00;99.90
70475;DHT22;57944;48.722;9.316;2023-03-21T02:57:54;9.00;99.90
70475;DHT22;57944;48.722;9.316;2023-03-21T03:00:40;8.90;99.90
70475;DHT22;57944;48.722;9.316;2023-03-21T03:03:19;8.90;99.90
70475;DHT22;57944;48.722;9.316;2023-03-21T03:06:01;8.70;99.90
70475;DHT22;57944;48.722;9.316;2023-03-21T03:08:41;8.70;99.90
70475;DHT22;57944;48.722;9.316;2023-03-21T03:11:32;8.70;99.90
70475;DHT22;57944;48.722;9.316;2023-03-21T03:14:16;8.70;99.90
70475;DHT22;57944;48.722;9.316;2023-03-21T03:17:34;8.70;99.90
70475;DHT22;57944;48.722;9.316;2023-03-21T03:20:15;8.70;99.90
70475;DHT22;57944;48.722;9.316;2023-03-21T03:22:54;8.70;99.90
70475;DHT22;57944;48.722;9.316;2023-03-21T03:25:30;8.80;99.90
70475;DHT22;57944;48.722;9.316;2023-03-21T03:28:16;8.70;99.90
70475;DHT22;57944;48.722;9.316;2023-03-21T03:30:50;8.70;99.90
70475;DHT22;57944;48.722;9.316;2023-03-21T03:33:40;8.60;99.90
70475;DHT22;57944;48.722;9.316;2023-03-21T03:36:14;8.70;99.90
70475;DHT22;57944;48.722;9.316;2023-03-21T03:38:58;8.60;99.90
70475;DHT22;57944;48.722;9.316;2023-03-21T03:41:32;8.40;99.90
70475;DHT22;57944;48.722;9.316;2023-03-21T03:44:32;8.40;99.90
70475;DHT22;57944;48.722;9.316;2023-03-21T03:47:05;8.40;99.90
70475;DHT22;57944;48.722;9.316;2023-03-21T03:49:57;8.50;99.90
70475;DHT22;57944;48.722;9.316;2023-03-21T03:52:36;8.60;99.90
70475;DHT22;57944;48.722;9.316;2023-03-21T03:55:22;8.70;99.90
70475;DHT22;57944;48.722;9.316;2023-03-21T03:58:06;9.00;99.90
70475;DHT22;57944;48.722;9.316;2023-03-21T04:00:53;9.30;99.90
70475;DHT22;57944;48.722;9.316;2023-03-21T04:03:23;9.50;99.90
70475;DHT22;57944;48.722;9.316;2023-03-21T04:05:56;9.50;99.90
70475;DHT22;57944;48.722;9.316;2023-03-21T04:08:26;9.30;99.90
70475;DHT22;57944;48.722;9.316;2023-03-21T04:10:56;9.30;99.90
70475;DHT22;57944;48.722;9.316;2023-03-21T04:13:26;9.40;99.90
70475;DHT22;57944;48.722;9.316;2023-03-21T04:16:21;9.40;99.90
70475;DHT22;57944;48.722;9.316;2023-03-21T04:18:51;9.40;99.90
70475;DHT22;57944;48.722;9.316;2023-03-21T04:21:22;9.40;99.90
70475;DHT22;57944;48.722;9.316;2023-03-21T04:23:53;9.40;99.90
70475;DHT22;57944;48.722;9.316;2023-03-21T04:26:23;9.40;99.90
70475;DHT22;57944;48.722;9.316;2023-03-21T04:29:30;9.30;99.90
70475;DHT22;57944;48.722;9.316;2023-03-21T04:32:25;9.10;99.90
70475;DHT22;57944;48.722;9.316;2023-03-21T04:35:07;8.90;99.90
70475;DHT22;57944;48.722;9.316;2023-03-21T04:37:38;8.60;99.90
70475;DHT22;57944;48.722;9.316;2023-03-21T04:40:12;8.60;99.90
70475;DHT22;57944;48.722;9.316;2023-03-21T04:42:44;8.40;99.90
70475;DHT22;57944;48.722;9.316;2023-03-21T04:45:14;8.30;99.90
70475;DHT22;57944;48.722;9.316;2023-03-21T04:47:47;8.20;99.90
70475;DHT22;57944;48.722;9.316;2023-03-21T04:50:18;8.20;99.90
70475;DHT22;57944;48.722;9.316;2023-03-21T04:52:47;8.10;99.90
70475;DHT22;57944;48.722;9.316;2023-03-21T04:55:19;8.00;99.90
70475;DHT22;57944;48.722;9.316;2023-03-21T04:57:52;7.90;99.90
70475;DHT22;57944;48.722;9.316;2023-03-21T05:00:22;7.70;99.90
70475;DHT22;57944;48.722;9.316;2023-03-21T05:02:55;7.60;99.90
70475;DHT22;57944;48.722;9.316;2023-03-21T05:05:26;7.50;99.90
70475;DHT22;57944;48.722;9.316;2023-03-21T05:07:56;7.40;99.90
70475;DHT22;57944;48.722;9.316;2023-03-21T05:10:26;7.50;99.90
70475;DHT22;57944;48.722;9.316;2023-03-21T05:12:56;7.50;99.90
70475;DHT22;57944;48.722;9.316;2023-03-21T05:15:26;7.20;99.90
70475;DHT22;57944;48.722;9.316;2023-03-21T05:17:59;7.10;99.90
70475;DHT22;57944;48.722;9.316;2023-03-21T05:20:41;7.30;99.90
70475;DHT22;57944;48.722;9.316;2023-03-21T05:23:12;7.40;99.90
70475;DHT22;57944;48.722;9.316;2023-03-21T05:25:44;7.70;99.90
70475;DHT22;57944;48.722;9.316;2023-03-21T05:28:19;7.90;99.90
70475;DHT22;57944;48.722;9.316;2023-03-21T05:30:58;7.90;99.90
70475;DHT22;57944;48.722;9.316;2023-03-21T05:33:31;8.00;99.90
70475;DHT22;57944;48.722;9.316;2023-03-21T05:36:01;8.00;99.90
70475;DHT22;57944;48.722;9.316;2023-03-21T05:38:31;8.10;99.90
70475;DHT22;57944;48.722;9.316;2023-03-21T05:41:01;8.10;99.90
70475;DHT22;57944;48.722;9.316;2023-03-21T05:43:31;8.20;99.90
70475;DHT22;57944;48.722;9.316;2023-03-21T05:46:01;8.30;99.90
70475;DHT22;57944;48.722;9.316;2023-03-21T05:48:34;8.30;99.90
70475;DHT22;57944;48.722;9.316;2023-03-21T05:51:16;8.40;99.90
70475;DHT22;57944;48.722;9.316;2023-03-21T05:53:46;8.50;99.90
70475;DHT22;57944;48.722;9.316;2023-03-21T05:56:17;8.50;99.90
70475;DHT22;57944;48.722;9.316;2023-03-21T05:58:51;8.60;99.90
70475;DHT22;57944;48.722;9.316;2023-03-21T06:01:22;8.60;99.90
70475;DHT22;57944;48.722;9.316;2023-03-21T06:04:06;8.60;99.90
70475;DHT22;57944;48.722;9.316;2023-03-21T06:06:38;8.40;99.90
70475;DHT22;57944;48.722;9.316;2023-03-21T06:09:08;8.30;99.90
70475;DHT22;57944;48.722;9.316;2023-03-21T06:11:43;8.50;99.90
70475;DHT22;57944;48.722;9.316;2023-03-21T06:14:26;8.60;99.90
70475;DHT22;57944;48.722;9.316;2023-03-21T06:17:19;8.80;99.90
70475;DHT22;57944;48.722;9.316;2023-03-21T06:19:57;8.90;99.90
70475;DHT22;57944;48.722;9.316;2023-03-21T06:22:33;9.00;99.90
70475;DHT22;57944;48.722;9.316;2023-03-21T06:25:05;9.10;99.90
70475;DHT22;57944;48.722;9.316;2023-03-21T06:27:36;9.20;99.90
70475;DHT22;57944;48.722;9.316;2023-03-21T06:30:07;9.40;99.90
70475;DHT22;57944;48.722;9.316;2023-03-21T06:32:46;9.40;99.90
70475;DHT22;57944;48.722;9.316;2023-03-21T06:35:19;9.50;99.90
70475;DHT22;57944;48.722;9.316;2023-03-21T06:37:49;9.60;99.90
70475;DHT22;57944;48.722;9.316;2023-03-21T06:40:20;9.70;99.90
70475;DHT22;57944;48.722;9.316;2023-03-21T06:42:51;9.70;99.90
70475;DHT22;57944;48.722;9.316;2023-03-21T06:45:21;9.80;99.90
70475;DHT22;57944;48.722;9.316;2023-03-21T06:47:51;9.70;99.90
70475;DHT22;57944;48.722;9.316;2023-03-21T06:50:34;9.80;99.90
70475;DHT22;57944;48.722;9.316;2023-03-21T06:53:04;9.80;99.90
70475;DHT22;57944;48.722;9.316;2023-03-21T06:55:53;9.70;99.90
70475;DHT22;57944;48.722;9.316;2023-03-21T06:58:23;9.60;99.90
70475;DHT22;57944;48.722;9.316;2023-03-21T07:00:54;9.80;99.90
70475;DHT22;57944;48.722;9.316;2023-03-21T07:03:28;9.80;99.90
70475;DHT22;57944;48.722;9.316;2023-03-21T07:06:05;9.90;99.90
70475;DHT22;57944;48.722;9.316;2023-03-21T07:08:37;10.10;99.90
70475;DHT22;57944;48.722;9.316;2023-03-21T07:11:08;10.20;99.90
70475;DHT22;57944;48.722;9.316;2023-03-21T07:13:38;10.40;99.90
70475;DHT22;57944;48.722;9.316;2023-03-21T07:16:09;10.40;99.90
70475;DHT22;57944;48.722;9.316;2023-03-21T07:18:39;10.50;99.90
70475;DHT22;57944;48.722;9.316;2023-03-21T07:21:13;10.70;99.90
70475;DHT22;57944;48.722;9.316;2023-03-21T07:23:43;11.60;99.90
70475;DHT22;57944;48.722;9.316;2023-03-21T07:26:14;13.10;99.90
70475;DHT22;57944;48.722;9.316;2023-03-21T07:28:44;14.70;99.90
70475;DHT22;57944;48.722;9.316;2023-03-21T07:31:15;16.60;99.90
70475;DHT22;57944;48.722;9.316;2023-03-21T07:33:47;17.80;99.90
70475;DHT22;57944;48.722;9.316;2023-03-21T07:36:19;19.40;99.90
70475;DHT22;57944;48.722;9.316;2023-03-21T07:38:49;20.10;98.90
70475;DHT22;57944;48.722;9.316;2023-03-21T07:41:22;20.90;97.70
70475;DHT22;57944;48.722;9.316;2023-03-21T07:43:59;21.90;95.90
70475;DHT22;57944;48.722;9.316;2023-03-21T07:46:32;20.90;94.90
70475;DHT22;57944;48.722;9.316;2023-03-21T07:49:01;19.60;95.50
70475;DHT22;57944;48.722;9.316;2023-03-21T07:51:34;18.60;96.20
70475;DHT22;57944;48.722;9.316;2023-03-21T07:54:04;17.70;97.20
70475;DHT22;57944;48.722;9.316;2023-03-21T07:56:34;17.00;98.40
70475;DHT22;57944;48.722;9.316;2023-03-21T07:59:04;16.90;98.80
70475;DHT22;57944;48.722;9.316;2023-03-21T08:01:34;18.10;98.40
70475;DHT22;57944;48.722;9.316;2023-03-21T08:04:03;20.40;97.10
70475;DHT22;57944;48.722;9.316;2023-03-21T08:06:36;23.10;94.40
70475;DHT22;57944;48.722;9.316;2023-03-21T08:09:06;22.80;91.50
70475;DHT22;57944;48.722;9.316;2023-03-21T08:11:36;21.50;92.10
70475;DHT22;57944;48.722;9.316;2023-03-21T08:14:06;20.80;92.40
70475;DHT22;57944;48.722;9.316;2023-03-21T08:16:36;21.40;92.80
70475;DHT22;57944;48.722;9.316;2023-03-21T08:19:05;21.30;92.30
70475;DHT22;57944;48.722;9.316;2023-03-21T08:21:38;21.30;92.30
70475;DHT22;57944;48.722;9.316;2023-03-21T08:24:08;21.60;92.00
70475;DHT22;57944;48.722;9.316;2023-03-21T08:26:38;21.90;91.40
70475;DHT22;57944;48.722;9.316;2023-03-21T08:29:08;21.20;91.30
70475;DHT22;57944;48.722;9.316;2023-03-21T08:31:38;21.00;92.20
70475;DHT22;57944;48.722;9.316;2023-03-21T08:34:08;21.40;91.70
70475;DHT22;57944;48.722;9.316;2023-03-21T08:36:41;22.10;92.00
70475;DHT22;57944;48.722;9.316;2023-03-21T08:39:12;22.20;90.50
70475;DHT22;57944;48.722;9.316;2023-03-21T08:41:42;23.90;89.30
70475;DHT22;57944;48.722;9.316;2023-03-21T08:44:12;24.30;87.00
70475;DHT22;57944;48.722;9.316;2023-03-21T08:46:42;25.90;86.00
70475;DHT22;57944;48.722;9.316;2023-03-21T08:49:12;27.50;81.90
70475;DHT22;57944;48.722;9.316;2023-03-21T08:51:45;27.40;77.00
70475;DHT22;57944;48.722;9.316;2023-03-21T08:56:48;28.00;75.00
70475;DHT22;57944;48.722;9.316;2023-03-21T08:59:18;28.90;74.60
70475;DHT22;57944;48.722;9.316;2023-03-21T09:01:48;28.80;71.70
70475;DHT22;57944;48.722;9.316;2023-03-21T09:04:18;29.30;70.60
70475;DHT22;57944;48.722;9.316;2023-03-21T09:06:54;30.10;69.50
70475;DHT22;57944;48.722;9.316;2023-03-21T09:09:27;29.80;68.40
70475;DHT22;57944;48.722;9.316;2023-03-21T09:11:56;30.90;66.00
70475;DHT22;57944;48.722;9.316;2023-03-21T09:14:27;30.80;64.30
70475;DHT22;57944;48.722;9.316;2023-03-21T09:16:56;31.50;62.30
70475;DHT22;57944;48.722;9.316;2023-03-21T09:19:26;29.30;62.70
70475;DHT22;57944;48.722;9.316;2023-03-21T09:22:00;27.50;65.30
70475;DHT22;57944;48.722;9.316;2023-03-21T09:24:30;27.90;66.70
70475;DHT22;57944;48.722;9.316;2023-03-21T09:27:00;28.40;65.00
70475;DHT22;57944;48.722;9.316;2023-03-21T09:29:29;29.10;64.10
70475;DHT22;57944;48.722;9.316;2023-03-21T09:31:59;29.50;62.60
70475;DHT22;57944;48.722;9.316;2023-03-21T09:34:32;28.60;62.20
70475;DHT22;57944;48.722;9.316;2023-03-21T09:37:06;27.50;62.80
70475;DHT22;57944;48.722;9.316;2023-03-21T09:39:36;28.00;62.50
70475;DHT22;57944;48.722;9.316;2023-03-21T09:42:10;28.90;62.00
70475;DHT22;57944;48.722;9.316;2023-03-21T09:44:51;28.70;60.20
70475;DHT22;57944;48.722;9.316;2023-03-21T09:47:27;27.50;61.70
70475;DHT22;57944;48.722;9.316;2023-03-21T09:50:01;24.50;64.50
70475;DHT22;57944;48.722;9.316;2023-03-21T09:52:45;22.50;69.00
70475;DHT22;57944;48.722;9.316;2023-03-21T09:55:19;21.90;70.60
70475;DHT22;57944;48.722;9.316;2023-03-21T09:57:55;21.70;70.80
70475;DHT22;57944;48.722;9.316;2023-03-21T10:00:34;21.70;72.50
70475;DHT22;57944;48.722;9.316;2023-03-21T10:03:11;22.00;72.30
70475;DHT22;57944;48.722;9.316;2023-03-21T10:05:50;22.00;72.10
70475;DHT22;57944;48.722;9.316;2023-03-21T10:08:26;22.80;72.20
70475;DHT22;57944;48.722;9.316;2023-03-21T10:11:02;23.60;70.80
70475;DHT22;57944;48.722;9.316;2023-03-21T10:13:40;24.10;69.70
70475;DHT22;57944;48.722;9.316;2023-03-21T10:16:13;24.60;67.50
70475;DHT22;57944;48.722;9.316;2023-03-21T10:18:45;25.60;66.30
70475;DHT22;57944;48.722;9.316;2023-03-21T10:21:18;26.10;65.40
70475;DHT22;57944;48.722;9.316;2023-03-21T10:24:14;26.20;64.20
70475;DHT22;57944;48.722;9.316;2023-03-21T10:26:46;26.30;63.90
70475;DHT22;57944;48.722;9.316;2023-03-21T10:29:18;26.40;63.60
70475;DHT22;57944;48.722;9.316;2023-03-21T10:31:52;25.80;63.40
70475;DHT22;57944;48.722;9.316;2023-03-21T10:34:25;25.70;64.60
70475;DHT22;57944;48.722;9.316;2023-03-21T10:36:59;25.80;64.60
70475;DHT22;57944;48.722;9.316;2023-03-21T10:39:35;25.60;64.80
70475;DHT22;57944;48.722;9.316;2023-03-21T10:42:08;24.40;65.90
70475;DHT22;57944;48.722;9.316;2023-03-21T10:44:48;24.30;66.50
70475;DHT22;57944;48.722;9.316;2023-03-21T10:47:19;24.90;66.50
70475;DHT22;57944;48.722;9.316;2023-03-21T10:49:51;24.80;65.20
70475;DHT22;57944;48.722;9.316;2023-03-21T10:52:33;25.00;66.30
70475;DHT22;57944;48.722;9.316;2023-03-21T10:55:14;26.30;65.00
70475;DHT22;57944;48.722;9.316;2023-03-21T10:57:47;27.40;63.50
70475;DHT22;57944;48.722;9.316;2023-03-21T11:00:22;28.00;60.70
70475;DHT22;57944;48.722;9.316;2023-03-21T11:02:54;27.70;60.30
70475;DHT22;57944;48.722;9.316;2023-03-21T11:05:26;27.60;61.10
70475;DHT22;57944;48.722;9.316;2023-03-21T11:08:04;27.30;60.50
70475;DHT22;57944;48.722;9.316;2023-03-21T11:10:50;26.60;60.50
70475;DHT22;57944;48.722;9.316;2023-03-21T11:13:23;26.60;61.70
70475;DHT22;57944;48.722;9.316;2023-03-21T11:15:56;25.80;61.80
70475;DHT22;57944;48.722;9.316;2023-03-21T11:18:32;25.70;62.60
70475;DHT22;57944;48.722;9.316;2023-03-21T11:21:03;25.20;62.20
70475;DHT22;57944;48.722;9.316;2023-03-21T11:23:35;24.70;63.10
70475;DHT22;57944;48.722;9.316;2023-03-21T11:26:15;24.70;62.60
70475;DHT22;57944;48.722;9.316;2023-03-21T11:28:49;25.00;62.90
70475;DHT22;57944;48.722;9.316;2023-03-21T11:31:20;26.10;62.20
70475;DHT22;57944;48.722;9.316;2023-03-21T11:33:54;26.40;60.60
70475;DHT22;57944;48.722;9.316;2023-03-21T11:36:30;26.50;61.20
70475;DHT22;57944;48.722;9.316;2023-03-21T11:39:17;25.70;59.40
70475;DHT22;57944;48.722;9.316;2023-03-21T11:42:01;24.90;61.20
70475;DHT22;57944;48.722;9.316;2023-03-21T11:44:33;24.20;60.50
70475;DHT22;57944;48.722;9.316;2023-03-21T11:47:09;23.40;61.60
70475;DHT22;57944;48.722;9.316;2023-03-21T11:49:39;23.20;62.00
70475;DHT22;57944;48.722;9.316;2023-03-21T11:52:13;23.20;62.80
70475;DHT22;57944;48.722;9.316;2023-03-21T11:55:04;23.20;62.20
70475;DHT22;57944;48.722;9.316;2023-03-21T11:57:57;23.50;62.80
70475;DHT22;57944;48.722;9.316;2023-03-21T12:00:41;23.20;61.80
70475;DHT22;57944;48.722;9.316;2023-03-21T12:03:29;22.60;63.80
70475;DHT22;57944;48.722;9.316;2023-03-21T12:06:18;22.40;63.20
70475;DHT22;57944;48.722;9.316;2023-03-21T12:11:56;21.50;66.20
70475;DHT22;57944;48.722;9.316;2023-03-21T12:14:39;21.20;66.40
70475;DHT22;57944;48.722;9.316;2023-03-21T12:17:19;21.00;66.00
70475;DHT22;57944;48.722;9.316;2023-03-21T12:19:58;21.00;65.80
70475;DHT22;57944;48.722;9.316;2023-03-21T12:22:40;20.90;66.50
70475;DHT22;57944;48.722;9.316;2023-03-21T12:25:18;21.30;65.30
70475;DHT22;57944;48.722;9.316;2023-03-21T12:27:56;21.50;65.40
70475;DHT22;57944;48.722;9.316;2023-03-21T12:30:45;21.30;65.00
70475;DHT22;57944;48.722;9.316;2023-03-21T12:33:24;21.30;66.00
70475;DHT22;57944;48.722;9.316;2023-03-21T12:36:07;21.50;65.40
70475;DHT22;57944;48.722;9.316;2023-03-21T12:38:47;21.40;65.70
70475;DHT22;57944;48.722;9.316;2023-03-21T12:41:27;21.70;65.70
70475;DHT22;57944;48.722;9.316;2023-03-21T12:44:03;21.90;64.80
70475;DHT22;57944;48.722;9.316;2023-03-21T12:46:41;21.80;64.30
70475;DHT22;57944;48.722;9.316;2023-03-21T12:49:15;21.50;64.60
70475;DHT22;57944;48.722;9.316;2023-03-21T12:51:50;21.30;65.10
70475;DHT22;57944;48.722;9.316;2023-03-21T12:54:25;21.10;64.60
70475;DHT22;57944;48.722;9.316;2023-03-21T12:57:00;20.90;64.80
70475;DHT22;57944;48.722;9.316;2023-03-21T12:59:38;21.40;63.70
70475;DHT22;57944;48.722;9.316;2023-03-21T13:02:19;21.10;64.10
70475;DHT22;57944;48.722;9.316;2023-03-21T13:04:57;21.10;64.80
70475;DHT22;57944;48.722;9.316;2023-03-21T13:07:30;21.40;64.30
70475;DHT22;57944;48.722;9.316;2023-03-21T13:10:10;21.20;64.30
70475;DHT22;57944;48.722;9.316;2023-03-21T13:12:43;20.90;63.60
70475;DHT22;57944;48.722;9.316;2023-03-21T13:15:31;21.00;64.70
70475;DHT22;57944;48.722;9.316;2023-03-21T13:18:14;21.00;64.90
70475;DHT22;57944;48.722;9.316;2023-03-21T13:20:52;21.30;65.10
70475;DHT22;57944;48.722;9.316;2023-03-21T13:23:25;21.80;63.70
70475;DHT22;57944;48.722;9.316;2023-03-21T13:26:03;21.90;63.90
70475;DHT22;57944;48.722;9.316;2023-03-21T13:28:38;22.30;64.90
70475;DHT22;57944;48.722;9.316;2023-03-21T13:31:18;22.60;63.40
70475;DHT22;57944;48.722;9.316;2023-03-21T13:33:53;22.30;63.00
70475;DHT22;57944;48.722;9.316;2023-03-21T13:36:27;22.30;62.90
70475;DHT22;57944;48.722;9.316;2023-03-21T13:38:59;22.60;62.20
70475;DHT22;57944;48.722;9.316;2023-03-21T13:41:33;22.60;62.50
70475;DHT22;57944;48.722;9.316;2023-03-21T13:44:07;22.30;62.10
70475;DHT22;57944;48.722;9.316;2023-03-21T13:46:51;22.30;63.10
70475;DHT22;57944;48.722;9.316;2023-03-21T13:49:27;22.10;64.20
70475;DHT22;57944;48.722;9.316;2023-03-21T13:51:59;22.00;63.50
70475;DHT22;57944;48.722;9.316;2023-03-21T13:54:44;21.90;63.80
70475;DHT22;57944;48.722;9.316;2023-03-21T14:00:16;22.10;63.60
70475;DHT22;57944;48.722;9.316;2023-03-21T14:02:52;22.20;63.00
70475;DHT22;57944;48.722;9.316;2023-03-21T14:05:27;22.20;64.20
70475;DHT22;57944;48.722;9.316;2023-03-21T14:07:59;21.50;64.30
70475;DHT22;57944;48.722;9.316;2023-03-21T14:10:44;21.30;65.00
70475;DHT22;57944;48.722;9.316;2023-03-21T14:13:16;21.30;64.00
70475;DHT22;57944;48.722;9.316;2023-03-21T14:15:50;21.40;65.40
70475;DHT22;57944;48.722;9.316;2023-03-21T14:18:23;21.50;64.30
70475;DHT22;57944;48.722;9.316;2023-03-21T14:21:18;21.50;64.50
70475;DHT22;57944;48.722;9.316;2023-03-21T14:23:57;21.70;63.30
70475;DHT22;57944;48.722;9.316;2023-03-21T14:26:29;21.70;63.20
70475;DHT22;57944;48.722;9.316;2023-03-21T14:29:01;21.90;63.10
70475;DHT22;57944;48.722;9.316;2023-03-21T14:31:44;21.90;62.00
70475;DHT22;57944;48.722;9.316;2023-03-21T14:34:15;22.00;62.40
70475;DHT22;57944;48.722;9.316;2023-03-21T14:36:49;21.90;62.20
70475;DHT22;57944;48.722;9.316;2023-03-21T14:39:26;21.70;61.50
70475;DHT22;57944;48.722;9.316;2023-03-21T14:42:00;21.70;61.50
70475;DHT22;57944;48.722;9.316;2023-03-21T14:44:32;21.60;59.60
70475;DHT22;57944;48.722;9.316;2023-03-21T14:47:22;21.60;57.60
70475;DHT22;57944;48.722;9.316;2023-03-21T14:49:54;21.40;56.00
70475;DHT22;57944;48.722;9.316;2023-03-21T14:52:29;21.20;56.80
70475;DHT22;57944;48.722;9.316;2023-03-21T14:55:02;21.30;57.20
70475;DHT22;57944;48.722;9.316;2023-03-21T14:57:42;21.20;56.40
70475;DHT22;57944;48.722;9.316;2023-03-21T15:00:15;21.00;58.80
70475;DHT22;57944;48.722;9.316;2023-03-21T15:02:50;21.00;57.40
70475;DHT22;57944;48.722;9.316;2023-03-21T15:05:22;20.90;58.00
70475;DHT22;57944;48.722;9.316;2023-03-21T15:07:58;20.80;57.40
70475;DHT22;57944;48.722;9.316;2023-03-21T15:10:29;20.50;59.10
70475;DHT22;57944;48.722;9.316;2023-03-21T15:13:00;20.40;61.70
70475;DHT22;57944;48.722;9.316;2023-03-21T15:15:41;19.80;70.00
70475;DHT22;57944;48.722;9.316;2023-03-21T15:18:13;19.40;71.90
70475;DHT22;57944;48.722;9.316;2023-03-21T15:20:48;18.90;74.50
70475;DHT22;57944;48.722;9.316;2023-03-21T15:23:23;18.60;75.70
70475;DHT22;57944;48.722;9.316;2023-03-21T15:25:55;18.60;75.90
70475;DHT22;57944;48.722;9.316;2023-03-21T15:28:26;18.40;76.00
70475;DHT22;57944;48.722;9.316;2023-03-21T15:30:56;18.20;74.60
70475;DHT22;57944;48.722;9.316;2023-03-21T15:33:26;18.10;75.00
70475;DHT22;57944;48.722;9.316;2023-03-21T15:35:57;18.10;75.80
70475;DHT22;57944;48.722;9.316;2023-03-21T15:38:32;18.10;77.00
70475;DHT22;57944;48.722;9.316;2023-03-21T15:41:12;18.20;76.00
70475;DHT22;57944;48.722;9.316;2023-03-21T15:43:43;18.30;76.30
70475;DHT22;57944;48.722;9.316;2023-03-21T15:46:14;18.30;77.00
70475;DHT22;57944;48.722;9.316;2023-03-21T15:48:44;18.20;78.70
70475;DHT22;57944;48.722;9.316;2023-03-21T15:51:16;18.30;79.60
70475;DHT22;57944;48.722;9.316;2023-03-21T15:53:52;18.10;79.40
70475;DHT22;57944;48.722;9.316;2023-03-21T15:56:22;17.80;80.00
70475;DHT22;57944;48.722;9.316;2023-03-21T15:59:00;17.40;80.30
70475;DHT22;57944;48.722;9.316;2023-03-21T16:01:32;17.00;82.00
70475;DHT22;57944;48.722;9.316;2023-03-21T16:04:05;16.80;83.10
70475;DHT22;57944;48.722;9.316;2023-03-21T16:06:36;16.50;83.60
70475;DHT22;57944;48.722;9.316;2023-03-21T16:09:12;16.30;84.20
70475;DHT22;57944;48.722;9.316;2023-03-21T16:11:48;16.10;84.80
70475;DHT22;57944;48.722;9.316;2023-03-21T16:14:19;15.90;85.50
70475;DHT22;57944;48.722;9.316;2023-03-21T16:16:49;15.70;85.80
70475;DHT22;57944;48.722;9.316;2023-03-21T16:19:19;15.60;86.20
70475;DHT22;57944;48.722;9.316;2023-03-21T16:21:50;15.50;87.30
70475;DHT22;57944;48.722;9.316;2023-03-21T16:24:22;15.40;87.90
70475;DHT22;57944;48.722;9.316;2023-03-21T16:26:52;15.30;88.10
70475;DHT22;57944;48.722;9.316;2023-03-21T16:29:22;15.20;89.00
70475;DHT22;57944;48.722;9.316;2023-03-21T16:31:52;15.10;89.60
70475;DHT22;57944;48.722;9.316;2023-03-21T16:34:21;15.10;90.00
70475;DHT22;57944;48.722;9.316;2023-03-21T16:36:52;15.00;90.30
70475;DHT22;57944;48.722;9.316;2023-03-21T16:39:25;14.90;90.60
70475;DHT22;57944;48.722;9.316;2023-03-21T16:41:55;14.90;91.10
70475;DHT22;57944;48.722;9.316;2023-03-21T16:44:24;14.80;91.40
70475;DHT22;57944;48.722;9.316;2023-03-21T16:46:54;14.70;91.80
70475;DHT22;57944;48.722;9.316;2023-03-21T16:49:27;14.60;92.00
70475;DHT22;57944;48.722;9.316;2023-03-21T16:51:57;14.60;92.50
70475;DHT22;57944;48.722;9.316;2023-03-21T16:54:30;14.40;92.90
70475;DHT22;57944;48.722;9.316;2023-03-21T16:56:59;14.30;93.30
70475;DHT22;57944;48.722;9.316;2023-03-21T16:59:33;14.20;93.80
70475;DHT22;57944;48.722;9.316;2023-03-21T17:02:08;14.20;93.90
70475;DHT22;57944;48.722;9.316;2023-03-21T17:04:42;14.10;94.60